Storms ready to go in the Midwest and Plains

10% tornado risk in Arkansas and Missouri for today… could get interesting.

Here’s a METAR report from St. Louis, MO this morning, showing a heavy thunderstorm with occasional lightning at 7am with a temperature of only 36 degrees!

KSTL 241151Z 10018G26KT 3SM +TSRA BR BKN031CB OVC047 02/01 A2999 RMK AO2 PK WND 11026/1149 TSB40 PRESFR SLP161 OCNL LTGICCG OHD TS OHD MOV NE P0030 60051 70051 T00220011 10028 20022 58043

Did you enjoy this post? Why not leave a comment below and continue the conversation, or subscribe to my feed and get articles like this delivered automatically to your feed reader.

Comments

No comments yet.

Leave a comment

(required)

(required)